Time;durP1;ratioP1;P1;durP2;ratioP2;P2;SDS_P1;SDS_P2;PMS_P1;PMS_P2;Temp;Humidity;BMP_temperature;BMP_pressure;BME280_temperature;BME280_humidity;BME280_pressure;Samples;Min_cycle;Max_cycle;Signal;HPM_P1;HPM_P2
2021/09/17 00:00:11;;;;;;;21.90;14.90;;;;;;;17.94;69.94;97190.61;117425;1176;58723;-70
2021/09/17 00:03:00;;;;;;;17.20;13.20;;;;;;;17.95;70.00;97191.58;117165;1176;58665;-69
2021/09/17 00:05:31;;;;;;;22.20;12.90;;;;;;;17.95;69.81;97187.02;117482;1176;70941;-74
2021/09/17 00:08:01;;;;;;;17.50;12.90;;;;;;;17.97;69.05;97187.86;117477;1176;69076;-74
2021/09/17 00:10:31;;;;;;;16.80;12.30;;;;;;;17.98;68.82;97192.86;117459;1177;69157;-70
2021/09/17 00:13:01;;;;;;;21.30;12.60;;;;;;;17.99;68.86;97200.10;117383;1176;58696;-69
2021/09/17 00:15:30;;;;;;;17.70;12.40;;;;;;;17.99;69.19;97205.19;117291;1177;58693;-69
2021/09/17 00:18:00;;;;;;;17.30;15.40;;;;;;;17.94;71.14;97211.95;117339;1177;70570;-68
2021/09/17 00:20:30;;;;;;;21.50;15.50;;;;;;;17.88;71.47;97220.75;117315;1175;68966;-68
2021/09/17 00:23:00;;;;;;;19.00;15.40;;;;;;;17.82;71.59;97216.95;117361;1176;68472;-75
2021/09/17 00:25:30;;;;;;;;;;;;;;;17.78;71.84;97203.05;117058;1177;58725;-71
2021/09/17 00:27:59;;;;;;;23.60;16.00;;;;;;;17.68;73.02;97195.86;117099;1177;58745;-68
2021/09/17 00:30:29;;;;;;;22.70;16.30;;;;;;;17.60;74.78;97206.30;117365;1176;70552;-72
2021/09/17 00:32:59;;;;;;;24.00;16.30;;;;;;;17.55;74.97;97202.52;117599;1176;69233;-71
2021/09/17 00:35:29;;;;;;;;;;;;;;;17.52;74.08;97198.93;117421;1175;68567;-70
2021/09/17 00:38:01;;;;;;;22.60;16.90;;;;;;;17.47;74.60;97186.27;117420;1176;58739;-71
2021/09/17 00:40:32;;;;;;;20.90;16.70;;;;;;;17.38;75.27;97179.06;117398;1177;58758;-71
2021/09/17 00:43:03;;;;;;;19.20;15.70;;;;;;;17.31;75.64;97177.02;117403;1177;70456;-69
2021/09/17 00:45:34;;;;;;;23.60;16.70;;;;;;;17.25;75.50;97179.61;117373;1177;69215;-70
2021/09/17 00:48:04;;;;;;;20.50;16.60;;;;;;;17.20;78.14;97177.49;117456;1176;69218;-68
2021/09/17 00:50:35;;;;;;;19.20;16.20;;;;;;;17.19;78.13;97182.42;117490;1175;58716;-69
2021/09/17 00:53:04;;;;;;;17.80;15.80;;;;;;;17.19;77.51;97182.11;117466;1177;58665;-67
2021/09/17 00:55:34;;;;;;;18.60;16.00;;;;;;;17.17;78.23;97180.68;117438;1177;70526;-75
2021/09/17 00:58:04;;;;;;;19.40;15.40;;;;;;;17.18;77.48;97181.05;117443;1177;68573;-71
2021/09/17 01:00:34;;;;;;;23.60;17.00;;;;;;;17.18;78.98;97172.24;117432;1176;69236;-74
2021/09/17 01:03:04;;;;;;;23.30;15.20;;;;;;;17.18;77.74;97167.05;117111;1177;58666;-71
2021/09/17 01:05:34;;;;;;;;;;;;;;;17.18;77.26;97170.16;117494;1174;59442;-75
2021/09/17 01:08:05;;;;;;;19.80;15.50;;;;;;;17.16;77.98;97168.05;117439;1176;70348;-73
2021/09/17 01:10:35;;;;;;;;;;;;;;;17.15;78.67;97168.04;117468;1177;68442;-70
2021/09/17 01:13:07;;;;;;;24.40;15.90;;;;;;;17.13;78.27;97168.48;117292;1177;70231;-71
2021/09/17 01:15:37;;;;;;;21.70;16.30;;;;;;;17.13;77.54;97165.42;117432;1177;59193;-76
2021/09/17 01:18:07;;;;;;;21.50;15.10;;;;;;;17.13;77.21;97164.20;117452;1177;58714;-76
2021/09/17 01:20:36;;;;;;;18.60;15.40;;;;;;;17.12;76.82;97161.34;117420;1176;70566;-76
2021/09/17 01:23:05;;;;;;;19.20;14.30;;;;;;;17.11;78.10;97155.73;117395;1176;69277;-71
2021/09/17 01:25:36;;;;;;;16.90;15.20;;;;;;;17.10;79.12;97149.08;117203;1167;69234;-76
2021/09/17 01:28:05;;;;;;;;;;;;;;;17.09;79.77;97143.71;117450;1177;58710;-76
2021/09/17 01:30:35;;;;;;;19.50;15.40;;;;;;;17.07;79.37;97136.63;117425;1177;58773;-75
2021/09/17 01:33:06;;;;;;;20.10;14.70;;;;;;;17.06;78.94;97128.39;117435;1175;69557;-75
2021/09/17 01:35:36;;;;;;;23.70;15.40;;;;;;;17.05;79.01;97123.31;117412;1177;69138;-71
2021/09/17 01:38:06;;;;;;;19.90;15.10;;;;;;;17.03;79.79;97124.10;117480;1176;68457;-73
2021/09/17 01:40:37;;;;;;;21.20;15.10;;;;;;;17.02;79.39;97121.84;117358;1176;58713;-74
2021/09/17 01:43:06;;;;;;;;;;;;;;;17.00;78.82;97117.20;117264;1176;58694;-70
2021/09/17 01:45:37;;;;;;;21.80;14.80;;;;;;;16.99;78.86;97115.21;117306;1177;69595;-73
2021/09/17 01:48:06;;;;;;;18.50;15.20;;;;;;;16.98;77.93;97111.19;117424;1177;68572;-69
2021/09/17 01:50:36;;;;;;;19.60;15.10;;;;;;;16.95;78.29;97114.35;117388;1177;68417;-76
2021/09/17 01:53:06;;;;;;;21.40;16.60;;;;;;;16.94;78.11;97113.32;117434;1177;58649;-76
2021/09/17 01:55:36;;;;;;;21.60;16.40;;;;;;;16.91;78.28;97106.33;117465;1171;58636;-75
2021/09/17 01:58:06;;;;;;;18.50;15.60;;;;;;;16.88;78.74;97106.13;117425;1175;69446;-73
2021/09/17 02:00:35;;;;;;;;;;;;;;;16.87;78.73;97105.70;117438;1176;69291;-74
2021/09/17 02:03:06;;;;;;;19.30;14.80;;;;;;;16.85;80.03;97115.14;117400;1177;69070;-69
2021/09/17 02:05:35;;;;;;;17.10;14.10;;;;;;;16.86;80.82;97108.84;117411;1177;58646;-69
2021/09/17 02:08:04;;;;;;;17.60;14.70;;;;;;;16.87;79.29;97106.88;117441;1176;58684;-74
2021/09/17 02:10:35;;;;;;;21.10;15.00;;;;;;;16.87;79.17;97102.40;117436;1175;70548;-75
2021/09/17 02:13:05;;;;;;;18.60;14.40;;;;;;;16.88;79.49;97103.72;117434;1175;68494;-76
2021/09/17 02:15:35;;;;;;;17.30;13.30;;;;;;;16.87;79.93;97103.15;117445;1176;69138;-75
2021/09/17 02:18:05;;;;;;;17.60;14.90;;;;;;;16.87;80.05;97101.78;117443;1177;58734;-69
2021/09/17 02:20:35;;;;;;;18.80;14.10;;;;;;;16.87;79.55;97097.13;117413;1174;58707;-70
2021/09/17 02:23:05;;;;;;;18.10;13.10;;;;;;;16.90;78.32;97095.80;117419;1177;69630;-71
2021/09/17 02:25:36;;;;;;;17.20;13.20;;;;;;;16.90;77.47;97086.65;117454;1176;68359;-68
2021/09/17 02:28:05;;;;;;;16.60;14.10;;;;;;;16.92;77.32;97085.39;117395;1176;69184;-66
2021/09/17 02:30:36;;;;;;;14.90;13.10;;;;;;;16.93;77.34;97082.70;117436;1177;58703;-67
2021/09/17 02:33:06;;;;;;;16.20;13.30;;;;;;;16.93;77.96;97077.06;117435;1177;59035;-68
2021/09/17 02:35:37;;;;;;;17.40;14.00;;;;;;;16.94;78.30;97074.53;117405;1177;70417;-70
2021/09/17 02:38:09;;;;;;;18.80;13.50;;;;;;;16.94;77.50;97071.48;117493;1177;68566;-68
2021/09/17 02:40:38;;;;;;;;;;;;;;;16.93;77.77;97069.54;117203;1176;69057;-71
2021/09/17 02:43:08;;;;;;;16.20;12.90;;;;;;;16.92;77.01;97068.77;117215;1176;58649;-74
2021/09/17 02:45:38;;;;;;;16.00;11.90;;;;;;;16.92;77.07;97073.39;117409;1176;58678;-73
2021/09/17 02:48:08;;;;;;;16.50;13.30;;;;;;;16.90;78.44;97077.14;117445;1176;69765;-75
2021/09/17 02:50:38;;;;;;;17.20;13.30;;;;;;;16.91;79.05;97072.77;117456;1176;69057;-75
2021/09/17 02:53:09;;;;;;;15.80;13.30;;;;;;;16.90;78.00;97068.64;117477;1176;69257;-75
2021/09/17 02:55:38;;;;;;;19.60;13.80;;;;;;;16.85;78.07;97068.92;117417;1175;58726;-72
2021/09/17 02:58:08;;;;;;;16.30;13.50;;;;;;;16.81;78.14;97062.13;117351;1177;58679;-69
2021/09/17 03:00:39;;;;;;;17.20;13.20;;;;;;;16.78;78.49;97057.92;117301;1176;70613;-68
2021/09/17 03:03:09;;;;;;;16.30;12.50;;;;;;;16.79;77.52;97056.00;117288;1176;68374;-72
2021/09/17 03:05:40;;;;;;;15.90;13.30;;;;;;;16.82;76.99;97051.86;117462;1176;69103;-73
2021/09/17 03:08:10;;;;;;;18.00;14.20;;;;;;;16.82;77.28;97053.09;117445;1177;58756;-68
2021/09/17 03:10:39;;;;;;;17.50;14.30;;;;;;;16.81;77.33;97047.48;117437;1176;58704;-69
2021/09/17 03:13:09;;;;;;;16.50;13.80;;;;;;;16.80;78.93;97053.72;117249;1177;69509;-72
2021/09/17 03:15:38;;;;;;;18.10;15.00;;;;;;;16.80;78.86;97057.79;117427;1176;68492;-75
2021/09/17 03:18:08;;;;;;;17.20;15.00;;;;;;;16.81;79.45;97058.16;117443;1177;68411;-73
2021/09/17 03:20:38;;;;;;;20.50;15.30;;;;;;;16.79;78.34;97053.05;117346;1176;58700;-69
2021/09/17 03:23:07;;;;;;;15.30;13.60;;;;;;;16.77;78.59;97054.09;117402;1176;58691;-72
2021/09/17 03:25:36;;;;;;;18.40;14.70;;;;;;;16.75;80.43;97051.90;117436;1175;70225;-71
2021/09/17 03:28:06;;;;;;;16.60;14.30;;;;;;;16.74;80.57;97055.60;117391;1176;69159;-70
2021/09/17 03:30:38;;;;;;;18.10;14.50;;;;;;;16.73;79.29;97050.51;117085;1177;69172;-73
2021/09/17 03:33:11;;;;;;;18.00;13.30;;;;;;;16.69;80.14;97046.42;117415;1175;58748;-76
2021/09/17 03:35:43;;;;;;;16.60;14.60;;;;;;;16.67;79.57;97049.45;117479;1177;59316;-74
2021/09/17 03:38:13;;;;;;;15.70;13.20;;;;;;;16.67;79.80;97047.45;117447;1175;70315;-73
2021/09/17 03:40:42;;;;;;;14.70;13.20;;;;;;;16.67;79.93;97049.64;117440;1177;68519;-69
2021/09/17 03:43:15;;;;;;;20.00;14.80;;;;;;;16.66;79.90;97049.92;117364;1175;69059;-68
2021/09/17 03:45:45;;;;;;;17.90;14.70;;;;;;;16.64;79.71;97045.06;117344;1177;58697;-76
2021/09/17 03:48:14;;;;;;;17.10;14.50;;;;;;;16.63;79.42;97047.20;117452;1177;58718;-71
2021/09/17 03:50:44;;;;;;;;;;;;;;;16.62;79.18;97043.06;117435;1175;69591;-72
2021/09/17 03:53:14;;;;;;;19.00;13.50;;;;;;;16.61;79.24;97045.23;117341;1176;68460;-73
2021/09/17 03:55:44;;;;;;;18.10;14.30;;;;;;;16.60;79.41;97047.92;117404;1177;69093;-71
2021/09/17 03:58:13;;;;;;;17.20;14.30;;;;;;;16.60;80.03;97045.99;117335;1176;58729;-70
2021/09/17 04:00:42;;;;;;;17.50;14.30;;;;;;;16.61;80.14;97042.35;117342;1175;58700;-73
2021/09/17 04:03:12;;;;;;;16.50;14.20;;;;;;;16.62;79.73;97039.87;117377;1177;69904;-68
2021/09/17 04:05:41;;;;;;;14.80;12.80;;;;;;;16.63;79.41;97031.94;117451;1176;67592;-72
2021/09/17 04:08:10;;;;;;;17.10;13.50;;;;;;;16.64;78.66;97031.55;117435;1176;69091;-71
2021/09/17 04:10:39;;;;;;;14.90;12.60;;;;;;;16.64;78.90;97027.73;117382;1176;58652;-70
2021/09/17 04:13:08;;;;;;;17.70;14.00;;;;;;;16.65;79.42;97030.18;117158;1177;58734;-71
2021/09/17 04:15:37;;;;;;;17.70;13.10;;;;;;;16.65;79.55;97026.94;117374;1177;68811;-70
2021/09/17 04:18:07;;;;;;;17.80;13.30;;;;;;;16.67;79.30;97035.15;117470;1175;69019;-76
2021/09/17 04:20:36;;;;;;;16.00;13.30;;;;;;;16.66;79.98;97037.27;117401;1176;69067;-70
2021/09/17 04:23:05;;;;;;;15.00;13.50;;;;;;;16.64;79.96;97032.91;117410;1177;58707;-68
2021/09/17 04:25:35;;;;;;;19.00;14.10;;;;;;;16.62;79.30;97036.55;117469;1176;58678;-70
2021/09/17 04:28:04;;;;;;;17.70;15.40;;;;;;;16.62;78.85;97037.79;117398;1176;70371;-68
2021/09/17 04:30:34;;;;;;;19.70;16.20;;;;;;;16.62;79.95;97035.55;117418;1177;69181;-69
2021/09/17 04:33:03;;;;;;;20.30;16.00;;;;;;;16.64;79.23;97035.77;117120;1177;69236;-71
2021/09/17 04:35:32;;;;;;;19.90;16.40;;;;;;;16.63;80.63;97034.27;117437;1176;58665;-71
2021/09/17 04:38:01;;;;;;;19.50;16.70;;;;;;;16.62;79.88;97032.04;117423;1175;58678;-68
2021/09/17 04:40:30;;;;;;;17.50;15.60;;;;;;;16.63;80.84;97032.65;117395;1175;68646;-75
2021/09/17 04:43:01;;;;;;;19.80;14.80;;;;;;;16.62;81.51;97030.05;117369;1177;68675;-73
2021/09/17 04:45:30;;;;;;;18.00;14.60;;;;;;;16.62;82.05;97034.38;117425;1177;69293;-70
2021/09/17 04:48:12;;;;;;;20.10;14.50;;;;;;;16.65;81.25;97034.20;117389;1175;58802;-75
2021/09/17 04:50:42;;;;;;;17.70;13.80;;;;;;;16.69;80.53;97033.00;117188;1171;58794;-73
2021/09/17 04:53:12;;;;;;;17.70;14.00;;;;;;;16.70;80.81;97027.95;117421;1176;71469;-76
2021/09/17 04:55:41;;;;;;;19.50;15.30;;;;;;;16.72;80.86;97027.21;117273;1176;68170;-74
2021/09/17 04:58:11;;;;;;;19.00;14.00;;;;;;;16.74;80.61;97030.98;117347;1176;68502;-75
2021/09/17 05:00:40;;;;;;;17.60;14.40;;;;;;;16.78;80.13;97036.52;117272;1177;58736;-75
2021/09/17 05:03:09;;;;;;;18.50;14.70;;;;;;;16.81;80.60;97035.99;117384;1175;58703;-70
2021/09/17 05:05:39;;;;;;;16.30;14.10;;;;;;;16.85;79.87;97033.34;117358;1176;70059;-71
2021/09/17 05:08:08;;;;;;;16.60;13.60;;;;;;;16.90;79.55;97030.88;117410;1176;68099;-71
2021/09/17 05:10:37;;;;;;;16.10;13.50;;;;;;;16.97;79.23;97029.05;117380;1176;69705;-72
2021/09/17 05:13:06;;;;;;;15.40;13.20;;;;;;;17.03;78.79;97028.08;117405;1175;58459;-69
2021/09/17 05:15:35;;;;;;;21.40;13.90;;;;;;;17.09;78.35;97026.38;117402;1176;58729;-72
2021/09/17 05:18:04;;;;;;;19.20;13.50;;;;;;;17.15;79.18;97021.90;117440;1176;69762;-73
2021/09/17 05:20:33;;;;;;;18.30;13.70;;;;;;;17.19;78.81;97023.10;117424;1175;68800;-74
2021/09/17 05:23:02;;;;;;;15.90;12.50;;;;;;;17.23;78.33;97030.16;117421;1177;68564;-74
2021/09/17 05:25:31;;;;;;;21.00;12.70;;;;;;;17.26;78.60;97030.00;117305;1177;58690;-75
2021/09/17 05:28:00;;;;;;;17.00;13.10;;;;;;;17.28;78.27;97034.14;117402;1176;58735;-75
2021/09/17 05:30:30;;;;;;;14.80;12.20;;;;;;;17.30;78.16;97032.21;117172;1175;70762;-69
2021/09/17 05:32:59;;;;;;;17.80;12.80;;;;;;;17.31;78.69;97032.48;117396;1175;67427;-72
2021/09/17 05:35:29;;;;;;;15.30;12.20;;;;;;;17.31;78.55;97025.77;117429;1177;69052;-74
2021/09/17 05:37:58;;;;;;;17.10;13.10;;;;;;;17.30;78.75;97022.45;117135;1176;58729;-71
2021/09/17 05:40:27;;;;;;;17.10;12.80;;;;;;;17.33;78.40;97017.08;117343;1177;58719;-70
2021/09/17 05:42:56;;;;;;;21.40;13.50;;;;;;;17.35;78.26;97017.19;117171;1177;69778;-74
2021/09/17 05:45:25;;;;;;;20.80;13.80;;;;;;;17.38;77.81;97013.09;117385;1176;68565;-72
2021/09/17 05:47:54;;;;;;;21.70;14.30;;;;;;;17.43;78.70;97011.77;117273;1177;68443;-70
2021/09/17 05:50:23;;;;;;;18.20;14.20;;;;;;;17.47;79.79;97011.95;117252;1177;58719;-74
2021/09/17 05:52:53;;;;;;;19.30;15.20;;;;;;;17.53;79.28;97017.64;117316;1176;58668;-73
2021/09/17 05:55:27;;;;;;;18.20;14.00;;;;;;;17.59;79.86;97017.80;117421;1176;71035;-76
2021/09/17 05:57:56;;;;;;;22.30;14.40;;;;;;;17.69;79.99;97013.16;117324;1174;69161;-69
2021/09/17 06:00:26;;;;;;;17.30;13.20;;;;;;;17.83;79.49;97010.88;117373;1175;69228;-70
2021/09/17 06:02:55;;;;;;;16.00;13.10;;;;;;;17.96;78.99;97011.36;117375;1176;58690;-70
2021/09/17 06:05:24;;;;;;;15.50;12.50;;;;;;;18.09;78.31;97015.20;117443;1175;58793;-71
2021/09/17 06:07:53;;;;;;;18.80;12.00;;;;;;;18.21;77.92;97014.00;117440;1177;69385;-71
2021/09/17 06:10:22;;;;;;;13.60;11.70;;;;;;;18.27;77.30;97020.95;117436;1176;68661;-72
2021/09/17 06:12:52;;;;;;;19.60;12.50;;;;;;;18.33;77.19;97015.90;117316;1177;69008;-70
2021/09/17 06:15:21;;;;;;;14.20;11.60;;;;;;;18.38;77.02;97012.91;117362;1171;58701;-70
2021/09/17 06:17:50;;;;;;;16.80;12.10;;;;;;;18.40;76.35;97010.11;117401;1175;58731;-69
2021/09/17 06:20:19;;;;;;;18.10;12.20;;;;;;;18.40;75.57;97010.47;117459;1174;69935;-73
2021/09/17 06:22:53;;;;;;;16.40;11.90;;;;;;;18.42;74.53;97010.27;117405;1175;69349;-71
2021/09/17 06:25:23;;;;;;;14.80;11.60;;;;;;;18.47;74.51;97010.74;117375;1175;68460;-69
2021/09/17 06:27:52;;;;;;;19.70;11.50;;;;;;;18.54;74.67;97014.81;117291;1177;58736;-69
2021/09/17 06:30:23;;;;;;;15.80;11.70;;;;;;;18.62;74.86;97011.22;117430;1175;58721;-75
2021/09/17 06:32:52;;;;;;;18.60;12.40;;;;;;;18.68;73.89;97013.48;117456;1175;69585;-74
2021/09/17 06:35:22;;;;;;;14.30;11.40;;;;;;;18.73;73.95;97013.48;117403;1176;69281;-76
2021/09/17 06:37:53;;;;;;;15.10;11.40;;;;;;;18.80;73.56;97016.86;117373;1176;69146;-71
2021/09/17 06:40:26;;;;;;;18.50;11.00;;;;;;;18.84;72.22;97017.84;117465;1174;58732;-73
2021/09/17 06:42:55;;;;;;;20.60;11.50;;;;;;;18.89;72.62;97012.98;117494;1174;58713;-72
2021/09/17 06:45:24;;;;;;;20.70;11.30;;;;;;;18.95;73.20;97013.23;117379;1174;69609;-77
2021/09/17 06:47:57;;;;;;;20.60;11.80;;;;;;;19.00;73.73;97018.53;117426;1176;69425;-70
2021/09/17 06:50:29;;;;;;;27.30;14.90;;;;;;;19.00;74.05;97016.24;117302;1175;69322;-71
2021/09/17 06:52:58;;;;;;;24.50;15.10;;;;;;;18.99;74.29;97013.89;117412;1174;58731;-68
2021/09/17 06:55:29;;;;;;;27.00;16.40;;;;;;;18.94;74.65;97016.80;117399;1174;58648;-73
2021/09/17 06:58:00;;;;;;;25.60;15.30;;;;;;;18.89;74.99;97015.21;117440;1174;69902;-69
2021/09/17 07:00:32;;;;;;;27.40;16.20;;;;;;;18.87;75.80;97015.05;117456;1174;69554;-69
2021/09/17 07:03:01;;;;;;;22.90;14.70;;;;;;;18.87;77.80;97013.88;117448;1175;68349;-70
2021/09/17 07:05:32;;;;;;;25.60;15.20;;;;;;;18.89;77.05;97016.13;117395;1175;58735;-70
2021/09/17 07:08:05;;;;;;;;;;;;;;;18.96;76.77;97013.02;117478;1175;58655;-70
2021/09/17 07:10:36;;;;;;;24.40;15.00;;;;;;;19.04;77.03;97011.16;117276;1175;70583;-76
2021/09/17 07:13:07;;;;;;;30.60;15.50;;;;;;;19.13;77.40;97013.57;117451;1174;68489;-74
2021/09/17 07:15:35;;;;;;;;;;;;;;;19.24;76.39;97015.69;117467;1175;68218;-68
2021/09/17 07:18:06;;;;;;;23.90;11.80;;;;;;;19.34;75.03;97018.03;117376;1174;58707;-74
2021/09/17 07:20:38;;;;;;;24.20;12.00;;;;;;;19.49;73.83;97016.66;117426;1175;58709;-69
2021/09/17 07:23:09;;;;;;;21.70;11.10;;;;;;;19.60;72.89;97015.83;117448;1175;70357;-69
2021/09/17 07:25:39;;;;;;;20.40;11.60;;;;;;;19.71;72.01;97015.70;117379;1177;69003;-72
2021/09/17 07:28:11;;;;;;;27.00;12.30;;;;;;;19.81;71.50;97020.40;117409;1175;67495;-68
2021/09/17 07:30:40;;;;;;;26.60;12.60;;;;;;;19.89;71.15;97018.64;117403;1174;58732;-74
2021/09/17 07:33:09;;;;;;;17.50;11.40;;;;;;;19.92;71.49;97021.30;117422;1177;58678;-75
2021/09/17 07:35:38;;;;;;;29.60;11.10;;;;;;;19.96;71.05;97020.96;117366;1177;70634;-74
2021/09/17 07:38:08;;;;;;;29.70;15.40;;;;;;;19.99;70.34;97022.38;117367;1174;67575;-71
2021/09/17 07:40:37;;;;;;;18.40;10.50;;;;;;;19.99;71.49;97018.13;117384;1175;68522;-75
2021/09/17 07:43:06;;;;;;;23.20;11.40;;;;;;;20.07;70.92;97018.56;117375;1175;58720;-70
2021/09/17 07:45:35;;;;;;;23.00;11.60;;;;;;;20.12;70.23;97020.98;117390;1175;59138;-68
2021/09/17 07:48:04;;;;;;;27.60;11.30;;;;;;;20.18;70.26;97020.08;117398;1175;69780;-68
2021/09/17 07:50:35;;;;;;;27.70;11.40;;;;;;;20.24;69.99;97020.02;117395;1175;68990;-67
2021/09/17 07:53:04;;;;;;;26.60;11.80;;;;;;;20.29;69.80;97017.44;117425;1177;69235;-75
2021/09/17 07:55:37;;;;;;;22.90;10.90;;;;;;;20.36;69.53;97018.19;117355;1175;58725;-71
2021/09/17 07:58:06;;;;;;;21.00;9.70;;;;;;;20.44;69.10;97014.55;117404;1176;58731;-68
2021/09/17 08:00:35;;;;;;;21.30;10.30;;;;;;;20.52;67.92;97009.88;117418;1176;70537;-73
2021/09/17 08:03:05;;;;;;;18.30;10.40;;;;;;;20.58;66.93;97013.21;117419;1175;69069;-73
2021/09/17 08:05:34;;;;;;;23.80;9.50;;;;;;;20.70;66.71;97014.87;117432;1177;68317;-74
2021/09/17 08:08:03;;;;;;;18.80;9.00;;;;;;;20.83;66.07;97015.30;117417;1176;58723;-71
2021/09/17 08:10:32;;;;;;;24.20;9.30;;;;;;;20.91;64.98;97011.73;117441;1175;58658;-74
2021/09/17 08:13:02;;;;;;;24.40;9.60;;;;;;;20.95;65.50;97005.88;117382;1175;70394;-73
2021/09/17 08:15:31;;;;;;;22.80;11.10;;;;;;;20.90;65.35;97011.75;117128;1177;68505;-76
2021/09/17 08:18:00;;;;;;;24.20;10.50;;;;;;;20.86;66.10;97014.95;117243;1177;68364;-72
2021/09/17 08:20:29;;;;;;;20.10;9.60;;;;;;;20.84;66.42;97013.27;117237;1171;58735;-76
2021/09/17 08:22:58;;;;;;;16.30;8.60;;;;;;;20.82;66.58;97011.22;117240;1175;58680;-75
2021/09/17 08:25:28;;;;;;;29.90;10.50;;;;;;;20.71;67.65;97010.40;117373;1175;70402;-72
2021/09/17 08:27:57;;;;;;;;;;;;;;;20.69;67.40;97003.52;117435;1175;68695;-72
2021/09/17 08:30:26;;;;;;;19.20;10.20;;;;;;;20.67;67.60;97005.48;117394;1175;67306;-70
2021/09/17 08:32:55;;;;;;;26.60;9.50;;;;;;;20.74;67.54;97005.08;117410;1176;58726;-76
2021/09/17 08:35:24;;;;;;;25.90;9.70;;;;;;;20.91;66.83;96999.50;117399;1175;58725;-75
2021/09/17 08:37:54;;;;;;;24.50;8.60;;;;;;;21.13;67.31;96996.65;117321;1175;69663;-75
2021/09/17 08:40:27;;;;;;;20.90;8.30;;;;;;;21.37;66.18;97001.02;117368;1175;69202;-77
2021/09/17 08:43:00;;;;;;;21.70;8.10;;;;;;;21.44;65.39;97002.35;117371;1167;67942;-71
2021/09/17 08:45:31;;;;;;;22.50;7.30;;;;;;;21.42;65.09;96999.46;117440;1176;58700;-75
2021/09/17 08:48:02;;;;;;;20.70;8.70;;;;;;;21.45;64.82;96995.83;117426;1176;58697;-76
2021/09/17 08:50:31;;;;;;;21.10;8.00;;;;;;;21.43;65.35;96997.81;117393;1176;70513;-76
2021/09/17 08:53:03;;;;;;;25.80;8.40;;;;;;;21.43;65.37;97003.44;117419;1177;69158;-75
2021/09/17 08:55:34;;;;;;;20.70;8.30;;;;;;;21.34;64.89;97004.77;117312;1176;68212;-75
2021/09/17 08:58:03;;;;;;;26.50;8.60;;;;;;;21.13;65.67;97009.20;117295;1177;58673;-77
2021/09/17 09:00:37;;;;;;;24.00;7.90;;;;;;;21.02;65.52;97012.39;117417;1175;58724;-71
2021/09/17 09:03:09;;;;;;;28.40;8.40;;;;;;;20.78;65.82;97015.13;117397;1176;70503;-74
2021/09/17 09:05:41;;;;;;;23.50;8.70;;;;;;;20.58;67.33;97018.13;117400;1177;69085;-75
2021/09/17 09:08:10;;;;;;;20.90;8.50;;;;;;;20.41;68.31;97012.04;117364;1176;68514;-76
2021/09/17 09:10:39;;;;;;;24.10;9.40;;;;;;;20.38;68.34;97009.24;117426;1177;58719;-70
2021/09/17 09:13:08;;;;;;;28.20;9.50;;;;;;;20.38;67.99;97014.40;117429;1176;58732;-69
2021/09/17 09:15:37;;;;;;;26.60;9.50;;;;;;;20.18;68.62;97009.05;117440;1175;69672;-69
2021/09/17 09:18:11;;;;;;;27.20;9.80;;;;;;;20.02;69.94;96997.73;117347;1175;69171;-70
2021/09/17 09:20:49;;;;;;;25.50;9.00;;;;;;;19.95;70.36;97002.30;117281;1177;68220;-69
2021/09/17 09:23:22;;;;;;;27.20;8.50;;;;;;;19.86;70.52;96993.93;117418;1175;58700;-69
2021/09/17 09:26:03;;;;;;;30.40;9.60;;;;;;;19.63;71.11;96996.61;117335;1177;58748;-72
2021/09/17 09:28:35;;;;;;;28.50;9.20;;;;;;;19.48;72.28;96986.85;117423;1176;70590;-71
2021/09/17 09:31:12;;;;;;;24.50;9.70;;;;;;;19.34;73.15;96986.23;117351;1174;69314;-72
2021/09/17 09:33:46;;;;;;;27.80;9.80;;;;;;;19.24;74.10;96985.66;117240;1177;69123;-72
2021/09/17 09:36:18;;;;;;;30.10;10.10;;;;;;;19.09;74.79;96984.27;117283;1175;58731;-76
2021/09/17 09:38:48;;;;;;;20.30;9.60;;;;;;;19.01;75.05;96987.63;117387;1174;58674;-72
2021/09/17 09:41:18;;;;;;;29.00;10.00;;;;;;;18.97;75.49;96984.77;117405;1175;70430;-72
2021/09/17 09:44:00;;;;;;;29.10;9.70;;;;;;;18.89;75.97;96980.52;117409;1175;68553;-71
2021/09/17 09:46:38;;;;;;;26.20;10.00;;;;;;;18.86;75.90;96977.66;117317;1174;69703;-70
2021/09/17 09:49:12;;;;;;;27.00;9.70;;;;;;;18.81;76.19;96981.62;117280;1175;58738;-70
2021/09/17 09:52:02;;;;;;;24.50;9.10;;;;;;;18.78;76.56;96981.56;117416;1175;58681;-70
2021/09/17 09:54:31;;;;;;;;;;;;;;;18.72;76.48;96972.98;117276;1176;70326;-69
2021/09/17 09:57:03;;;;;;;21.80;10.20;;;;;;;18.69;76.38;96972.06;117355;1176;69795;-70
2021/09/17 09:59:34;;;;;;;30.00;12.30;;;;;;;18.71;76.46;96969.11;117376;1176;69336;-71
2021/09/17 10:02:05;;;;;;;20.20;9.70;;;;;;;18.74;76.41;96967.59;117375;1175;58725;-73
2021/09/17 10:04:36;;;;;;;29.20;9.60;;;;;;;18.80;76.25;96963.67;117399;1176;58803;-71
2021/09/17 10:07:10;;;;;;;26.30;9.00;;;;;;;18.85;76.36;96964.29;117412;1175;70664;-70
2021/09/17 10:09:40;;;;;;;23.30;8.90;;;;;;;18.92;76.20;96954.67;117389;1176;69242;-73
2021/09/17 10:12:10;;;;;;;;;;;;;;;18.96;75.46;96953.55;117388;1177;69461;-72
2021/09/17 10:14:45;;;;;;;24.30;8.60;;;;;;;19.04;75.46;96947.59;117381;1174;58791;-76
2021/09/17 10:17:20;;;;;;;19.80;7.80;;;;;;;19.13;74.85;96942.04;117378;1176;58707;-72
2021/09/17 10:19:52;;;;;;;23.50;8.40;;;;;;;19.22;74.16;96941.21;116955;1177;69780;-69
2021/09/17 10:22:34;;;;;;;21.90;8.30;;;;;;;19.38;74.02;96951.73;117384;1171;68419;-74
2021/09/17 10:25:17;;;;;;;25.60;8.00;;;;;;;19.58;73.56;96954.94;117337;1175;69504;-71
2021/09/17 10:28:04;;;;;;;25.00;8.10;;;;;;;19.83;73.14;96949.75;117422;1175;58710;-71
2021/09/17 10:30:36;;;;;;;23.00;8.50;;;;;;;20.14;72.51;96948.44;117409;1175;58732;-73
2021/09/17 10:33:21;;;;;;;32.50;9.10;;;;;;;20.59;72.19;96947.04;117445;1176;69635;-69
2021/09/17 10:35:51;;;;;;;20.20;8.30;;;;;;;21.10;70.61;96940.06;117391;1176;69590;-68
2021/09/17 10:38:25;;;;;;;21.40;7.90;;;;;;;21.25;68.49;96941.65;117342;1176;68551;-70
2021/09/17 10:41:04;;;;;;;25.70;8.50;;;;;;;21.28;68.15;96935.64;117358;1175;58723;-69
2021/09/17 10:43:46;;;;;;;26.30;8.20;;;;;;;21.42;67.91;96929.64;117415;1175;58706;-69
2021/09/17 10:46:21;;;;;;;27.90;8.70;;;;;;;21.48;67.52;96921.70;117341;1175;70437;-68
2021/09/17 10:48:57;;;;;;;19.50;8.10;;;;;;;21.54;67.27;96912.73;117414;1174;68739;-74
2021/09/17 10:51:40;;;;;;;27.30;7.90;;;;;;;21.61;67.71;96910.67;117305;1175;69044;-70
2021/09/17 10:54:10;;;;;;;19.10;7.00;;;;;;;21.81;66.54;96909.14;117358;1175;58796;-72
2021/09/17 10:56:48;;;;;;;;;;;;;;;21.75;66.00;96907.31;117408;1175;58755;-73
2021/09/17 10:59:25;;;;;;;25.70;7.90;;;;;;;21.78;65.71;96906.30;117291;1175;69869;-70
2021/09/17 11:02:05;;;;;;;18.90;7.40;;;;;;;21.73;65.98;96905.03;117420;1175;68389;-72
2021/09/17 11:04:40;;;;;;;24.70;7.70;;;;;;;21.73;66.47;96904.35;117433;1175;69251;-74
2021/09/17 11:07:18;;;;;;;20.00;7.60;;;;;;;21.60;66.23;96895.46;117405;1177;58668;-73
2021/09/17 11:09:52;;;;;;;28.50;8.20;;;;;;;21.54;66.55;96890.21;117422;1174;58684;-69
2021/09/17 11:12:38;;;;;;;16.70;7.10;;;;;;;21.43;66.66;96893.80;117407;1176;70525;-71
2021/09/17 11:15:17;;;;;;;24.90;7.90;;;;;;;21.43;66.01;96894.47;117395;1177;69028;-69
2021/09/17 11:17:52;;;;;;;26.60;7.40;;;;;;;21.32;66.51;96894.35;117331;1174;69240;-71
2021/09/17 11:20:22;;;;;;;30.90;8.80;;;;;;;21.27;66.13;96888.83;117381;1174;58643;-68
2021/09/17 11:22:59;;;;;;;21.40;8.20;;;;;;;21.28;66.56;96883.38;117396;1175;58775;-68
2021/09/17 11:25:31;;;;;;;27.30;7.80;;;;;;;21.31;66.39;96869.84;117343;1176;70566;-71
2021/09/17 11:28:02;;;;;;;21.20;7.90;;;;;;;21.28;66.86;96864.80;117455;1175;69194;-68
2021/09/17 11:30:34;;;;;;;25.20;8.50;;;;;;;21.28;67.09;96854.45;117259;1177;69263;-69